Time;durP1;ratioP1;P1;durP2;ratioP2;P2;SDS_P1;SDS_P2;PMS_P1;PMS_P2;Temp;Humidity;BMP_temperature;BMP_pressure;BME280_temperature;BME280_humidity;BME280_pressure;Samples;Min_cycle;Max_cycle;Signal;HPM_P1;HPM_P2
2021/04/15 00:02:04;;;;;;;3.88;1.08;;;-0.50;99.90;;;;;;5049888;28;20675;-76
2021/04/15 00:04:30;;;;;;;1.40;1.30;;;-0.50;99.90;;;;;;5057965;28;20035;-76
2021/04/15 00:06:56;;;;;;;1.42;1.20;;;-0.50;99.90;;;;;;5050187;28;20029;-76
2021/04/15 00:09:23;;;;;;;3.25;1.40;;;-0.50;99.90;;;;;;5050575;28;20034;-76
2021/04/15 00:11:50;;;;;;;1.77;1.10;;;-0.50;99.90;;;;;;5049510;28;20075;-76
2021/04/15 00:14:19;;;;;;;1.20;0.98;;;-0.50;99.90;;;;;;5032826;28;20025;-76
2021/04/15 00:16:46;;;;;;;4.88;1.42;;;-0.50;99.90;;;;;;5049398;28;20039;-76
2021/04/15 00:19:15;;;;;;;1.83;1.30;;;-0.50;99.90;;;;;;5050062;28;20021;-76
2021/04/15 00:21:42;;;;;;;2.55;1.50;;;-0.50;99.90;;;;;;5049820;28;20024;-76
2021/04/15 00:24:08;;;;;;;3.00;1.60;;;-0.50;99.90;;;;;;5050264;28;20100;-76
2021/04/15 00:26:34;;;;;;;1.75;1.30;;;-0.50;99.90;;;;;;5049667;28;20104;-76
2021/04/15 00:29:00;;;;;;;1.55;1.25;;;-0.60;99.90;;;;;;5050506;28;20554;-76
2021/04/15 00:31:28;;;;;;;4.13;1.30;;;-0.50;99.90;;;;;;5049385;28;20032;-76
2021/04/15 00:33:54;;;;;;;2.90;1.30;;;-0.50;99.90;;;;;;5050345;28;20445;-76
2021/04/15 00:36:21;;;;;;;2.90;2.00;;;-0.50;99.90;;;;;;5049453;28;20036;-76
2021/04/15 00:38:48;;;;;;;4.10;1.08;;;-0.40;99.90;;;;;;5023295;28;20032;-76
2021/04/15 00:41:14;;;;;;;1.98;1.30;;;-0.40;99.90;;;;;;5044662;28;20029;-76
2021/04/15 00:43:43;;;;;;;1.75;1.40;;;-0.30;99.90;;;;;;5049189;28;20021;-76
2021/04/15 00:46:47;;;;;;;1.65;1.45;;;-0.30;99.90;;;;;;5043812;28;20075;-76
2021/04/15 00:49:23;;;;;;;1.25;1.13;;;-0.20;99.90;;;;;;5026860;28;20053;-76
2021/04/15 00:51:50;;;;;;;;;;;-0.20;99.90;;;;;;5045644;28;20037;-76
2021/04/15 00:54:37;;;;;;;2.28;1.50;;;-0.20;99.90;;;;;;5049990;28;20090;-76
2021/04/15 00:57:11;;;;;;;3.40;1.45;;;-0.10;99.90;;;;;;5048789;28;20033;-76
2021/04/15 00:59:37;;;;;;;4.60;1.70;;;-0.10;99.90;;;;;;5046413;28;20056;-76
2021/04/15 01:02:03;;;;;;;2.78;2.00;;;-0.10;99.90;;;;;;5046767;28;20056;-76
2021/04/15 01:04:28;;;;;;;1.38;1.23;;;0.00;99.90;;;;;;5049095;28;20041;-76
2021/04/15 01:06:54;;;;;;;4.85;2.10;;;0.10;99.90;;;;;;5048618;28;20041;-76
2021/04/15 01:09:22;;;;;;;3.92;1.70;;;0.20;99.90;;;;;;5045481;28;20122;-77
2021/04/15 01:12:14;;;;;;;3.00;1.88;;;0.30;99.90;;;;;;5047233;28;20108;-76
2021/04/15 01:14:51;;;;;;;7.22;2.30;;;0.40;99.90;;;;;;5047751;28;20445;-76
2021/04/15 01:17:45;;;;;;;3.33;1.55;;;0.40;99.90;;;;;;5046041;28;20391;-76
2021/04/15 01:20:44;;;;;;;3.22;1.88;;;0.40;99.90;;;;;;5048536;28;20025;-76
2021/04/15 01:23:47;;;;;;;4.63;1.63;;;0.40;99.90;;;;;;5045677;28;20078;-76
2021/04/15 01:26:49;;;;;;;1.60;1.42;;;0.40;99.90;;;;;;5034487;28;20041;-76
2021/04/15 01:29:27;;;;;;;3.15;1.48;;;0.40;99.90;;;;;;5047058;28;20032;-76
2021/04/15 01:32:08;;;;;;;2.72;1.40;;;0.40;99.90;;;;;;5047345;28;20040;-76
2021/04/15 01:34:37;;;;;;;2.22;1.48;;;0.40;99.90;;;;;;5044879;28;20068;-76
2021/04/15 01:37:15;;;;;;;3.35;1.75;;;0.30;99.90;;;;;;5047433;28;20029;-76
2021/04/15 01:39:49;;;;;;;2.72;1.30;;;0.30;99.90;;;;;;5049786;28;20383;-76
2021/04/15 01:42:20;;;;;;;1.83;1.25;;;0.20;99.90;;;;;;5048944;28;20060;-76
2021/04/15 01:44:53;;;;;;;0.95;0.93;;;0.20;99.90;;;;;;5047588;28;20088;-76
2021/04/15 01:47:28;;;;;;;1.92;1.48;;;0.10;99.90;;;;;;5050702;28;20104;-76
2021/04/15 01:50:04;;;;;;;2.45;1.13;;;0.10;99.90;;;;;;5044837;28;20025;-76
2021/04/15 01:52:31;;;;;;;4.45;1.92;;;0.00;99.90;;;;;;5044536;28;20032;-76
2021/04/15 01:55:17;;;;;;;1.85;1.38;;;0.00;99.90;;;;;;5047846;28;20098;-76
2021/04/15 01:57:55;;;;;;;3.47;2.08;;;-0.10;99.90;;;;;;5048261;28;20079;-76
2021/04/15 02:00:26;;;;;;;1.90;1.58;;;-0.10;99.90;;;;;;5045641;28;20021;-76
2021/04/15 02:03:15;;;;;;;2.00;1.63;;;-0.10;99.90;;;;;;5051182;28;20091;-76
2021/04/15 02:05:43;;;;;;;3.70;1.88;;;-0.20;99.90;;;;;;5045127;28;20036;-76
2021/04/15 02:08:11;;;;;;;4.30;2.05;;;-0.30;99.90;;;;;;5047196;28;20485;-76
2021/04/15 02:10:42;;;;;;;3.30;1.80;;;-0.30;99.90;;;;;;5046932;28;20025;-76
2021/04/15 02:13:10;;;;;;;7.85;1.90;;;-0.40;99.90;;;;;;5038587;28;20030;-76
2021/04/15 02:15:45;;;;;;;3.33;1.65;;;-0.40;99.90;;;;;;5047723;28;20048;-76
2021/04/15 02:18:19;;;;;;;6.83;2.43;;;-0.40;99.90;;;;;;5049576;28;20082;-76
2021/04/15 02:20:49;;;;;;;5.72;1.83;;;-0.40;99.90;;;;;;5051860;28;20766;-76
2021/04/15 02:23:37;;;;;;;3.53;2.15;;;-0.40;99.90;;;;;;5052775;28;20707;-76
2021/04/15 02:26:14;;;;;;;4.65;2.00;;;-0.50;99.90;;;;;;5050841;28;20041;-76
2021/04/15 02:28:46;;;;;;;2.72;1.60;;;-0.60;99.90;;;;;;5052501;28;20380;-76
2021/04/15 02:31:20;;;;;;;3.67;1.83;;;-0.60;99.90;;;;;;5034166;28;20120;-76
2021/04/15 02:33:55;;;;;;;1.95;1.27;;;-0.60;99.90;;;;;;5052804;28;20068;-76
2021/04/15 02:36:25;;;;;;;3.90;1.33;;;-0.70;99.90;;;;;;5051727;28;20036;-76
2021/04/15 02:38:54;;;;;;;3.38;1.73;;;-0.70;99.90;;;;;;5052535;28;20112;-76
2021/04/15 02:41:24;;;;;;;2.15;1.80;;;-0.70;99.90;;;;;;5051914;28;20052;-76
2021/04/15 02:44:00;;;;;;;3.05;1.83;;;-0.70;99.90;;;;;;5052197;28;20055;-76
2021/04/15 02:46:34;;;;;;;5.32;1.73;;;-0.80;99.90;;;;;;5043016;28;20033;-76
2021/04/15 02:49:04;;;;;;;2.83;1.50;;;-0.70;99.90;;;;;;5045853;28;20272;-76
2021/04/15 02:51:34;;;;;;;6.65;2.13;;;-0.80;99.90;;;;;;5051364;28;20433;-76
2021/04/15 02:54:15;;;;;;;2.33;1.55;;;-0.80;99.90;;;;;;5052445;28;20024;-76
2021/04/15 02:56:46;;;;;;;3.75;1.65;;;-0.80;99.90;;;;;;5050706;28;20040;-76
2021/04/15 02:59:18;;;;;;;2.13;1.45;;;-0.80;99.90;;;;;;5046931;28;20085;-76
2021/04/15 03:01:49;;;;;;;3.05;1.63;;;-0.80;99.90;;;;;;5051341;28;20032;-76
2021/04/15 03:04:18;;;;;;;2.70;1.40;;;-0.90;99.90;;;;;;5052285;28;20037;-76
2021/04/15 03:06:45;;;;;;;3.47;2.10;;;-0.90;99.90;;;;;;5049375;28;20064;-76
2021/04/15 03:09:13;;;;;;;3.63;2.17;;;-0.90;99.90;;;;;;5051918;28;20032;-76
2021/04/15 03:11:54;;;;;;;3.70;2.05;;;-0.90;99.90;;;;;;5051253;28;20021;-76
2021/04/15 03:14:26;;;;;;;2.45;1.60;;;-0.90;99.90;;;;;;5057371;28;20038;-76
2021/04/15 03:16:56;;;;;;;4.22;2.28;;;-0.90;99.90;;;;;;5051330;28;20429;-76
2021/04/15 03:19:25;;;;;;;2.95;1.80;;;-0.90;99.90;;;;;;5048823;28;20044;-76
2021/04/15 03:22:15;;;;;;;4.55;2.17;;;-1.00;99.90;;;;;;5050200;28;20025;-76
2021/04/15 03:24:51;;;;;;;3.40;1.80;;;-1.00;99.90;;;;;;5051656;28;20025;-76
2021/04/15 03:27:44;;;;;;;3.15;2.03;;;-1.10;99.90;;;;;;5049328;28;20515;-76
2021/04/15 03:30:15;;;;;;;4.10;2.30;;;-1.10;99.90;;;;;;5042133;28;20041;-76
2021/04/15 03:32:57;;;;;;;3.22;2.13;;;-1.10;99.90;;;;;;5051358;28;20089;-76
2021/04/15 03:36:05;;;;;;;3.47;2.22;;;-1.10;99.90;;;;;;5050187;28;20117;-76
2021/04/15 03:38:34;;;;;;;4.68;1.98;;;-1.20;99.90;;;;;;5047076;28;20036;-76
2021/04/15 03:41:08;;;;;;;2.50;2.28;;;-1.20;99.90;;;;;;5050891;28;20048;-76
2021/04/15 03:43:40;;;;;;;3.30;2.20;;;-1.20;99.90;;;;;;5049620;28;20036;-76
2021/04/15 03:46:05;;;;;;;4.03;2.33;;;-1.20;99.90;;;;;;5051085;28;20108;-76
2021/04/15 03:48:48;;;;;;;3.17;1.88;;;-1.20;99.90;;;;;;5049710;28;20571;-76
2021/04/15 03:51:22;;;;;;;3.70;2.08;;;-1.20;99.90;;;;;;5049860;28;20028;-76
2021/04/15 03:53:53;;;;;;;3.38;1.90;;;-1.20;99.90;;;;;;5048797;28;20029;-76
2021/04/15 03:56:32;;;;;;;2.65;1.95;;;-1.20;99.90;;;;;;5046166;28;20033;-76
2021/04/15 03:59:03;;;;;;;2.55;1.73;;;-1.20;99.90;;;;;;5050607;28;20472;-76
2021/04/15 04:01:36;;;;;;;2.60;1.90;;;-1.20;99.90;;;;;;5044790;28;20479;-76
2021/04/15 04:04:36;;;;;;;3.65;2.05;;;-1.20;99.90;;;;;;5049418;28;20451;-76
2021/04/15 04:07:09;;;;;;;3.10;1.98;;;-1.10;99.90;;;;;;5048180;28;20573;-76
2021/04/15 04:09:41;;;;;;;2.00;1.50;;;-1.10;99.90;;;;;;5049016;28;20036;-76
2021/04/15 04:12:17;;;;;;;4.95;2.53;;;-1.10;99.90;;;;;;5037284;28;20390;-76
2021/04/15 04:15:09;;;;;;;3.00;1.75;;;-1.10;99.90;;;;;;5050495;28;20040;-76
2021/04/15 04:17:41;;;;;;;4.35;2.45;;;-1.00;99.90;;;;;;5048324;28;20021;-76
2021/04/15 04:20:08;;;;;;;3.10;2.15;;;-1.00;99.90;;;;;;5049877;28;20037;-76
2021/04/15 04:22:53;;;;;;;4.07;2.38;;;-0.90;99.90;;;;;;5049584;28;20025;-76
2021/04/15 04:25:53;;;;;;;2.63;1.80;;;-0.90;99.90;;;;;;5049114;28;20470;-76
2021/04/15 04:28:36;;;;;;;3.45;2.08;;;-1.00;99.90;;;;;;5049749;28;20091;-76
2021/04/15 04:31:13;;;;;;;4.75;2.50;;;-1.00;99.90;;;;;;5042225;28;20033;-76
2021/04/15 04:33:43;;;;;;;3.55;1.88;;;-1.00;99.90;;;;;;5048748;28;20025;-76
2021/04/15 04:36:12;;;;;;;3.60;2.08;;;-1.00;99.90;;;;;;5048272;28;20032;-76
2021/04/15 04:38:38;;;;;;;3.05;2.00;;;-1.00;99.90;;;;;;5049008;28;20498;-76
2021/04/15 04:41:17;;;;;;;4.65;2.00;;;-0.90;99.90;;;;;;5049238;28;20484;-76
2021/04/15 04:43:50;;;;;;;4.20;2.13;;;-0.90;99.90;;;;;;5059363;28;20496;-76
2021/04/15 04:46:24;;;;;;;3.72;2.13;;;-0.90;99.90;;;;;;5049572;28;20476;-76
2021/04/15 04:48:56;;;;;;;3.13;1.73;;;-0.80;99.90;;;;;;5047166;28;20025;-76
2021/04/15 04:51:26;;;;;;;2.83;2.00;;;-0.80;99.90;;;;;;5046777;28;20357;-76
2021/04/15 04:53:52;;;;;;;3.28;2.22;;;-0.80;99.90;;;;;;5045655;28;20186;-76
2021/04/15 04:56:32;;;;;;;6.15;1.83;;;-0.70;99.90;;;;;;5051742;28;21009;-76
2021/04/15 04:59:15;;;;;;;3.38;2.30;;;-0.70;99.90;;;;;;5045616;28;20025;-76
2021/04/15 05:01:41;;;;;;;3.70;2.13;;;-0.60;99.90;;;;;;5042172;28;20014;-76
2021/04/15 05:04:08;;;;;;;3.88;2.03;;;-0.50;99.90;;;;;;5044539;28;20032;-76
2021/04/15 05:06:42;;;;;;;8.07;2.85;;;-0.50;99.90;;;;;;5048917;28;20116;-76
2021/04/15 05:09:21;;;;;;;2.65;2.30;;;-0.40;99.90;;;;;;5040822;28;20029;-76
2021/04/15 05:11:49;;;;;;;5.30;2.67;;;-0.30;99.90;;;;;;5048616;28;20036;-76
2021/04/15 05:14:18;;;;;;;5.60;2.47;;;-0.20;99.90;;;;;;5042752;28;20032;-76
2021/04/15 05:17:03;;;;;;;5.13;2.28;;;-0.10;99.90;;;;;;5048548;28;20037;-76
2021/04/15 05:19:33;;;;;;;4.93;2.15;;;-0.10;99.90;;;;;;5048405;28;20095;-76
2021/04/15 05:22:01;;;;;;;2.72;1.80;;;0.00;99.90;;;;;;5049093;28;20033;-76
2021/04/15 05:24:42;;;;;;;4.60;2.35;;;0.10;99.90;;;;;;5048055;28;20021;-76
2021/04/15 05:27:08;;;;;;;4.95;2.45;;;0.20;99.90;;;;;;5048524;28;20029;-76
2021/04/15 05:29:39;;;;;;;4.43;2.30;;;0.30;99.90;;;;;;5048111;28;20032;-76
2021/04/15 05:32:06;;;;;;;3.25;2.17;;;0.50;99.90;;;;;;5056115;28;20352;-76
2021/04/15 05:34:41;;;;;;;3.40;2.70;;;0.60;99.90;;;;;;5047925;28;20041;-76
2021/04/15 05:37:13;;;;;;;4.32;2.45;;;0.70;99.90;;;;;;5048336;28;20082;-76
2021/04/15 05:39:39;;;;;;;4.53;2.55;;;0.90;99.90;;;;;;5047653;28;20473;-76
2021/04/15 05:42:17;;;;;;;3.47;2.97;;;1.00;99.90;;;;;;5048461;28;20025;-76
2021/04/15 05:44:48;;;;;;;7.57;2.40;;;1.10;99.90;;;;;;5048400;28;20021;-76
2021/04/15 05:47:21;;;;;;;4.10;2.85;;;1.40;99.90;;;;;;5045629;28;20025;-76
2021/04/15 05:49:51;;;;;;;5.88;3.58;;;1.60;99.90;;;;;;5048800;28;20535;-77
2021/04/15 05:52:40;;;;;;;5.05;3.08;;;1.90;99.90;;;;;;5050190;28;20423;-76
2021/04/15 05:55:08;;;;;;;4.65;2.00;;;2.00;99.90;;;;;;5051005;28;20075;-76
2021/04/15 05:57:38;;;;;;;7.18;3.60;;;2.20;99.90;;;;;;5052228;28;20427;-76
2021/04/15 06:00:15;;;;;;;6.78;3.90;;;2.30;99.90;;;;;;5052061;28;20048;-76
2021/04/15 06:02:52;;;;;;;7.72;3.65;;;2.30;99.90;;;;;;5049458;28;20025;-75
2021/04/15 06:05:22;;;;;;;5.65;3.83;;;2.30;99.90;;;;;;5052523;28;20511;-76
2021/04/15 06:07:51;;;;;;;6.00;3.83;;;2.30;99.90;;;;;;5052411;28;20025;-75
2021/04/15 06:10:21;;;;;;;6.65;4.43;;;2.30;99.90;;;;;;5051716;28;20025;-75
2021/04/15 06:13:20;;;;;;;6.70;3.90;;;2.30;99.90;;;;;;5051331;28;20036;-75
2021/04/15 06:15:51;;;;;;;9.48;4.95;;;2.30;99.90;;;;;;5031331;28;20514;-75
2021/04/15 06:18:32;;;;;;;10.52;4.53;;;2.40;99.90;;;;;;5051914;28;20033;-75
2021/04/15 06:21:01;;;;;;;6.75;4.32;;;2.40;99.90;;;;;;5049391;28;20057;-75
2021/04/15 06:23:49;;;;;;;9.90;4.63;;;2.60;99.90;;;;;;5052819;28;20029;-75
2021/04/15 06:26:29;;;;;;;3.85;2.65;;;2.80;99.90;;;;;;5050974;28;20028;-75
2021/04/15 06:28:57;;;;;;;5.18;2.90;;;3.30;99.90;;;;;;5049361;28;20053;-75
2021/04/15 06:31:29;;;;;;;4.78;3.17;;;3.70;99.90;;;;;;5047800;28;20104;-75
2021/04/15 06:34:00;;;;;;;3.20;2.45;;;4.10;99.90;;;;;;5054183;28;20091;-75
2021/04/15 06:36:44;;;;;;;9.10;3.95;;;4.20;99.90;;;;;;5052023;28;20096;-75
2021/04/15 06:39:23;;;;;;;6.53;4.20;;;4.20;99.90;;;;;;5052292;28;20028;-75
2021/04/15 06:42:13;;;;;;;5.35;3.67;;;4.20;99.90;;;;;;5051975;28;20280;-75
2021/04/15 06:45:21;;;;;;;4.82;3.50;;;4.00;99.90;;;;;;5050866;28;20025;-75
2021/04/15 06:48:12;;;;;;;8.30;4.07;;;3.80;99.90;;;;;;5051697;28;20068;-75
2021/04/15 06:51:29;;;;;;;9.65;5.20;;;3.70;99.90;;;;;;5050844;28;20063;-75
2021/04/15 06:54:18;;;;;;;8.13;4.82;;;3.90;99.90;;;;;;5041453;28;20035;-75
2021/04/15 06:57:13;;;;;;;10.13;5.97;;;4.10;99.90;;;;;;5047881;28;20560;-75
2021/04/15 06:59:57;;;;;;;8.05;5.07;;;4.40;99.90;;;;;;5048128;28;20074;-75
2021/04/15 07:02:41;;;;;;;8.48;5.30;;;4.70;99.90;;;;;;5050294;28;20052;-75
2021/04/15 07:05:13;;;;;;;7.20;4.35;;;5.00;99.90;;;;;;5049940;28;20436;-75
2021/04/15 07:07:42;;;;;;;8.68;5.70;;;5.30;99.90;;;;;;5046763;28;20029;-75
2021/04/15 07:10:42;;;;;;;10.20;5.82;;;5.80;99.90;;;;;;5047150;28;20025;-74
2021/04/15 07:13:26;;;;;;;11.27;6.50;;;6.20;99.90;;;;;;5050468;28;20041;-75
2021/04/15 07:16:29;;;;;;;10.25;6.32;;;6.20;99.90;;;;;;5047814;28;20025;-76
2021/04/15 07:19:16;;;;;;;10.05;6.05;;;6.30;99.90;;;;;;5050073;28;20028;-74
2021/04/15 07:21:52;;;;;;;9.70;6.00;;;6.20;99.90;;;;;;5048645;28;20056;-75
2021/04/15 07:24:28;;;;;;;10.27;6.53;;;6.20;99.90;;;;;;5050680;28;20036;-75
2021/04/15 07:27:28;;;;;;;11.32;7.07;;;6.20;99.90;;;;;;5049826;28;20078;-75
2021/04/15 07:30:19;;;;;;;11.60;6.53;;;6.00;99.90;;;;;;5051518;28;20029;-75
2021/04/15 07:33:08;;;;;;;10.38;6.03;;;6.00;99.90;;;;;;5039185;28;20035;-75
2021/04/15 07:35:37;;;;;;;15.82;6.60;;;5.90;99.90;;;;;;5033771;28;20077;-76
2021/04/15 07:38:37;;;;;;;12.63;7.10;;;5.80;99.90;;;;;;5020728;28;20718;-75
2021/04/15 07:41:19;;;;;;;14.57;6.90;;;5.60;99.90;;;;;;5047682;28;20037;-75
2021/04/15 07:43:55;;;;;;;11.98;7.32;;;5.60;99.90;;;;;;5050764;28;20028;-75
2021/04/15 07:46:36;;;;;;;;;;;5.60;99.90;;;;;;5047627;28;20021;-75
2021/04/15 07:49:39;;;;;;;12.98;6.80;;;5.70;99.90;;;;;;5047680;28;19909;-75
2021/04/15 07:52:23;;;;;;;12.32;7.80;;;5.70;99.90;;;;;;5052460;28;20037;-75
2021/04/15 07:55:26;;;;;;;9.93;6.32;;;5.70;99.90;;;;;;5036571;28;20035;-75
2021/04/15 07:58:36;;;;;;;10.73;6.20;;;5.70;99.90;;;;;;5048204;28;20052;-76
2021/04/15 08:01:12;;;;;;;12.38;6.05;;;5.60;99.90;;;;;;5047326;28;20024;-75
2021/04/15 08:04:03;;;;;;;11.80;6.72;;;5.50;99.90;;;;;;5044975;28;20078;-75
2021/04/15 08:06:40;;;;;;;11.27;5.65;;;5.50;99.90;;;;;;5042400;28;20025;-75
2021/04/15 08:09:31;;;;;;;12.55;5.97;;;5.50;99.90;;;;;;5049094;28;20037;-75
2021/04/15 08:12:17;;;;;;;7.97;5.05;;;5.60;99.90;;;;;;5045684;28;20055;-74
2021/04/15 08:15:01;;;;;;;11.63;5.97;;;5.70;99.90;;;;;;5049884;28;20036;-75
2021/04/15 08:17:35;;;;;;;9.63;6.05;;;5.80;99.90;;;;;;5047611;28;20057;-75
2021/04/15 08:20:41;;;;;;;8.88;5.55;;;5.90;99.90;;;;;;5050520;28;20032;-75
2021/04/15 08:23:25;;;;;;;7.82;5.43;;;5.90;99.90;;;;;;5050128;28;20083;-75
2021/04/15 08:26:17;;;;;;;13.60;5.15;;;5.90;99.90;;;;;;5048184;28;20031;-77
2021/04/15 08:29:15;;;;;;;11.25;6.07;;;5.90;99.90;;;;;;5047828;28;20107;-77
2021/04/15 08:32:11;;;;;;;10.70;5.68;;;5.80;99.90;;;;;;5054654;28;20037;-76
2021/04/15 08:34:43;;;;;;;11.82;6.47;;;5.90;99.90;;;;;;5047522;28;20407;-75
2021/04/15 08:37:38;;;;;;;9.45;5.68;;;6.00;99.90;;;;;;5042362;28;20021;-75
2021/04/15 08:40:26;;;;;;;11.07;6.55;;;6.30;99.90;;;;;;5047132;28;20029;-76
2021/04/15 08:43:20;;;;;;;11.15;6.32;;;6.30;99.90;;;;;;5042548;28;20087;-75
2021/04/15 08:46:11;;;;;;;10.93;6.03;;;6.30;99.90;;;;;;5046295;28;20107;-75
2021/04/15 08:49:00;;;;;;;11.05;5.53;;;6.10;99.90;;;;;;5042031;28;20029;-75
2021/04/15 08:51:53;;;;;;;11.25;6.05;;;5.90;99.90;;;;;;5045322;28;20491;-75
2021/04/15 08:54:31;;;;;;;12.50;6.35;;;5.90;99.90;;;;;;5038847;28;20063;-75
2021/04/15 08:57:38;;;;;;;9.35;6.38;;;6.20;99.90;;;;;;5047560;28;20387;-75
2021/04/15 09:00:26;;;;;;;10.40;5.80;;;6.50;99.90;;;;;;5039760;28;20029;-75
2021/04/15 09:03:06;;;;;;;6.88;5.22;;;6.80;99.90;;;;;;5046218;28;20186;-75
2021/04/15 09:05:55;;;;;;;10.90;5.90;;;6.90;99.90;;;;;;5044798;28;20480;-75
2021/04/15 09:08:27;;;;;;;11.93;5.78;;;6.90;99.90;;;;;;5047644;28;20032;-75
2021/04/15 09:11:07;;;;;;;7.90;5.28;;;7.10;99.90;;;;;;5044020;28;20515;-75
2021/04/15 09:13:42;;;;;;;9.45;6.07;;;7.30;99.90;;;;;;5046682;28;20488;-75
2021/04/15 09:16:27;;;;;;;9.50;5.75;;;7.60;99.90;;;;;;5048336;28;20492;-75
2021/04/15 09:19:19;;;;;;;8.48;5.22;;;7.80;99.40;;;;;;5049590;28;20021;-75
2021/04/15 09:21:59;;;;;;;6.90;4.65;;;7.80;98.40;;;;;;5047846;28;20025;-75
2021/04/15 09:24:36;;;;;;;9.55;4.57;;;7.90;94.90;;;;;;5049243;28;20032;-75
2021/04/15 09:27:15;;;;;;;5.82;3.60;;;7.90;94.60;;;;;;5034608;28;20026;-77
2021/04/15 09:30:01;;;;;;;5.13;3.55;;;7.80;92.90;;;;;;5047540;28;20060;-75
2021/04/15 09:32:38;;;;;;;4.63;2.85;;;7.70;89.40;;;;;;5052681;28;20033;-75
2021/04/15 09:35:42;;;;;;;6.30;3.33;;;7.50;88.50;;;;;;5053733;28;20439;-76
2021/04/15 09:38:25;;;;;;;4.15;2.72;;;7.30;90.60;;;;;;5056661;28;20017;-76
2021/04/15 09:40:57;;;;;;;6.90;3.45;;;7.20;90.70;;;;;;5045774;28;20060;-76
2021/04/15 09:43:31;;;;;;;2.80;2.50;;;7.20;88.90;;;;;;5051546;28;20017;-78
2021/04/15 09:46:17;;;;;;;4.35;1.92;;;7.20;89.90;;;;;;5053036;28;20033;-77
2021/04/15 09:49:03;;;;;;;1.85;1.75;;;7.20;87.00;;;;;;5053902;28;20029;-77
2021/04/15 09:51:50;;;;;;;2.58;1.67;;;7.30;86.10;;;;;;5051951;28;20428;-77
2021/04/15 09:54:40;;;;;;;3.25;1.52;;;7.50;87.70;;;;;;5053606;28;20108;-75
2021/04/15 09:57:25;;;;;;;2.75;1.45;;;7.60;85.90;;;;;;5049570;28;20033;-76
2021/04/15 10:00:15;;;;;;;3.58;1.33;;;7.40;77.20;;;;;;5049294;28;20040;-77
2021/04/15 10:03:16;;;;;;;2.17;1.50;;;7.40;81.40;;;;;;5050117;28;20036;-76
2021/04/15 10:05:42;;;;;;;2.45;1.27;;;7.40;81.10;;;;;;5047391;28;20029;-76
2021/04/15 10:08:27;;;;;;;2.55;1.50;;;7.60;85.90;;;;;;5050637;28;20032;-77
2021/04/15 10:11:04;;;;;;;2.87;1.17;;;7.70;78.90;;;;;;5050102;28;20025;-77
2021/04/15 10:14:20;;;;;;;1.70;1.02;;;7.70;76.60;;;;;;5048853;28;20103;-76
2021/04/15 10:17:14;;;;;;;1.48;1.30;;;7.50;71.70;;;;;;5050154;28;20330;-77
2021/04/15 10:20:11;;;;;;;2.13;1.10;;;7.30;73.70;;;;;;5049081;28;20703;-76
2021/04/15 10:22:43;;;;;;;1.40;1.30;;;7.20;74.30;;;;;;5047988;28;20531;-76
2021/04/15 10:25:32;;;;;;;1.63;1.30;;;7.30;71.00;;;;;;5052733;28;20151;-76
2021/04/15 10:28:16;;;;;;;4.32;1.83;;;7.30;70.90;;;;;;5051567;28;20036;-77
2021/04/15 10:30:57;;;;;;;4.20;1.48;;;7.50;73.10;;;;;;5051727;28;20032;-77
2021/04/15 10:33:48;;;;;;;2.00;1.58;;;7.50;69.70;;;;;;5051894;28;20527;-76
2021/04/15 10:36:38;;;;;;;1.60;1.35;;;7.40;70.40;;;;;;5048570;28;20025;-76
2021/04/15 10:39:37;;;;;;;3.38;1.50;;;7.50;71.50;;;;;;5051586;28;20083;-76
2021/04/15 10:42:21;;;;;;;2.88;1.20;;;7.50;67.70;;;;;;5049929;28;20114;-75
2021/04/15 10:45:26;;;;;;;1.63;1.10;;;7.60;61.10;;;;;;5050068;28;20021;-76
2021/04/15 10:48:13;;;;;;;1.60;1.50;;;7.50;64.00;;;;;;5050433;28;20029;-77
2021/04/15 10:50:45;;;;;;;2.35;1.25;;;7.60;65.80;;;;;;5051033;28;20483;-75
2021/04/15 10:53:18;;;;;;;1.20;1.10;;;7.60;62.50;;;;;;5050414;28;20100;-76
2021/04/15 10:55:50;;;;;;;2.05;1.13;;;7.70;65.30;;;;;;5049774;28;20045;-77
2021/04/15 10:58:30;;;;;;;2.08;1.17;;;7.60;64.60;;;;;;5048005;28;20067;-76
2021/04/15 11:01:16;;;;;;;1.63;1.17;;;7.60;62.90;;;;;;5047431;28;20048;-76
2021/04/15 11:03:42;;;;;;;2.67;0.90;;;7.50;63.40;;;;;;5048249;28;20033;-79
2021/04/15 11:06:14;;;;;;;1.10;1.00;;;7.50;62.90;;;;;;5049327;28;20039;-76
2021/04/15 11:08:40;;;;;;;2.28;1.10;;;7.50;62.10;;;;;;5034365;28;20029;-76
2021/04/15 11:11:24;;;;;;;1.48;1.10;;;7.50;59.50;;;;;;5049778;28;20420;-75
2021/04/15 11:14:02;;;;;;;1.67;0.93;;;7.30;58.30;;;;;;5047676;28;20032;-76
2021/04/15 11:16:30;;;;;;;1.10;1.00;;;7.20;63.50;;;;;;5050607;28;20032;-76
2021/04/15 11:19:08;;;;;;;1.23;1.13;;;7.30;64.20;;;;;;5045694;28;20071;-76
2021/04/15 11:21:37;;;;;;;1.23;1.10;;;7.50;64.40;;;;;;5049264;28;20083;-77
2021/04/15 11:24:27;;;;;;;1.30;1.20;;;7.50;63.50;;;;;;5049132;28;20052;-75
2021/04/15 11:26:55;;;;;;;1.30;1.10;;;7.60;63.20;;;;;;5047850;28;20025;-75
2021/04/15 11:29:40;;;;;;;1.58;1.05;;;7.70;65.40;;;;;;5051248;28;20036;-75
2021/04/15 11:32:29;;;;;;;1.13;0.80;;;7.80;63.60;;;;;;5050280;28;20033;-76
2021/04/15 11:35:06;;;;;;;0.98;0.80;;;8.10;63.10;;;;;;5027572;28;20041;-75
2021/04/15 11:37:32;;;;;;;1.30;0.75;;;8.20;61.90;;;;;;5033816;28;20052;-75
2021/04/15 11:40:33;;;;;;;1.00;0.75;;;8.20;60.90;;;;;;5050323;28;20112;-76
2021/04/15 11:43:19;;;;;;;0.75;0.70;;;8.20;62.00;;;;;;5045532;28;20025;-75
2021/04/15 11:45:45;;;;;;;0.70;0.70;;;8.20;60.50;;;;;;5044684;28;20074;-75
2021/04/15 11:48:27;;;;;;;1.15;0.60;;;8.10;59.50;;;;;;5045700;28;20128;-74
2021/04/15 11:51:13;;;;;;;2.05;0.63;;;8.00;60.20;;;;;;5048091;28;20068;-76
2021/04/15 11:53:53;;;;;;;1.20;0.73;;;8.10;59.30;;;;;;5046655;28;20174;-75
2021/04/15 11:56:33;;;;;;;0.93;0.80;;;8.30;60.30;;;;;;5046900;28;20028;-75
2021/04/15 11:59:15;;;;;;;1.50;0.70;;;8.50;55.00;;;;;;5044025;28;20025;-77
2021/04/15 12:01:41;;;;;;;1.38;0.50;;;8.50;56.60;;;;;;5046656;28;20029;-76
2021/04/15 12:04:12;;;;;;;1.35;0.73;;;8.60;56.30;;;;;;5050696;28;20017;-74
2021/04/15 12:06:58;;;;;;;0.88;0.75;;;8.50;55.00;;;;;;5049642;28;20017;-76
2021/04/15 12:09:35;;;;;;;2.22;0.73;;;8.40;57.80;;;;;;5045128;28;20459;-74
2021/04/15 12:12:21;;;;;;;0.70;0.50;;;8.40;58.50;;;;;;5049945;28;20029;-77
2021/04/15 12:14:46;;;;;;;1.88;0.90;;;8.50;58.30;;;;;;5047177;28;20033;-75
2021/04/15 12:17:29;;;;;;;0.85;0.75;;;8.60;58.20;;;;;;5050700;28;20025;-75
2021/04/15 12:20:05;;;;;;;2.17;0.70;;;8.60;59.20;;;;;;5049073;28;20578;-75
2021/04/15 12:23:16;;;;;;;0.85;0.60;;;8.60;56.90;;;;;;5049540;28;20032;-77
2021/04/15 12:25:48;;;;;;;1.63;0.90;;;8.40;57.90;;;;;;5031551;28;20079;-76
2021/04/15 12:28:26;;;;;;;1.20;0.82;;;8.40;56.60;;;;;;5048886;28;20037;-74
2021/04/15 12:31:01;;;;;;;1.20;0.65;;;8.50;58.90;;;;;;5048591;28;20047;-76
2021/04/15 12:34:03;;;;;;;1.60;0.93;;;8.80;58.10;;;;;;5047907;28;20033;-74
2021/04/15 12:36:32;;;;;;;0.50;0.50;;;8.90;52.40;;;;;;5047459;28;20060;-75
2021/04/15 12:39:04;;;;;;;0.75;0.70;;;8.90;51.70;;;;;;5049010;28;20585;-75
2021/04/15 12:41:31;;;;;;;1.00;0.80;;;8.70;53.10;;;;;;5047348;28;20490;-74
2021/04/15 12:44:11;;;;;;;1.77;1.13;;;8.60;54.60;;;;;;5049875;28;20041;-75
2021/04/15 12:46:37;;;;;;;1.10;0.63;;;8.40;56.20;;;;;;5050190;28;20053;-75
2021/04/15 12:49:10;;;;;;;1.45;0.77;;;8.30;57.00;;;;;;5051079;28;20091;-76
2021/04/15 12:51:40;;;;;;;0.70;0.70;;;8.10;57.90;;;;;;5050810;28;20047;-73
2021/04/15 12:54:27;;;;;;;0.98;0.90;;;8.00;58.50;;;;;;5050980;28;20028;-75
2021/04/15 12:57:03;;;;;;;0.85;0.65;;;7.90;58.00;;;;;;5046315;28;20024;-74
2021/04/15 12:59:34;;;;;;;0.88;0.68;;;7.90;58.20;;;;;;5050278;28;20040;-75
2021/04/15 13:02:00;;;;;;;0.70;0.70;;;7.90;57.80;;;;;;5049128;28;20037;-76
2021/04/15 13:04:29;;;;;;;1.17;0.68;;;8.00;56.30;;;;;;5032104;28;20412;-75
2021/04/15 13:07:01;;;;;;;0.95;0.80;;;8.10;56.50;;;;;;5050092;28;20028;-77
2021/04/15 13:09:31;;;;;;;1.00;0.88;;;8.20;57.10;;;;;;5048016;28;20040;-75
2021/04/15 13:11:58;;;;;;;0.90;0.90;;;8.30;57.60;;;;;;5045336;28;20028;-75
2021/04/15 13:14:41;;;;;;;0.70;0.70;;;8.60;57.60;;;;;;5048953;28;20025;-75
2021/04/15 13:17:10;;;;;;;1.02;0.82;;;9.00;57.90;;;;;;5048661;28;20399;-76
2021/04/15 13:19:57;;;;;;;2.00;1.10;;;9.40;57.00;;;;;;5048071;28;20049;-76
2021/04/15 13:22:32;;;;;;;1.02;0.90;;;9.60;56.00;;;;;;5049025;28;20029;-76
2021/04/15 13:25:01;;;;;;;0.80;0.80;;;9.60;55.90;;;;;;5044566;28;20095;-77
2021/04/15 13:30:17;;;;;;;1.35;0.80;;;9.20;56.10;;;;;;5049608;28;20134;-75
2021/04/15 13:33:12;;;;;;;0.75;0.60;;;8.90;55.60;;;;;;5041415;28;20033;-77
2021/04/15 13:36:01;;;;;;;0.95;0.85;;;8.80;55.90;;;;;;5045820;28;20041;-75
2021/04/15 13:38:27;;;;;;;0.88;0.88;;;8.70;56.10;;;;;;5045056;28;20060;-75
2021/04/15 13:40:54;;;;;;;1.17;0.50;;;8.80;56.60;;;;;;5044175;28;20415;-76
2021/04/15 13:43:33;;;;;;;0.77;0.70;;;8.90;56.90;;;;;;5047167;28;20029;-75
2021/04/15 13:46:17;;;;;;;0.70;0.70;;;9.20;56.30;;;;;;5047436;28;20033;-76
2021/04/15 13:48:50;;;;;;;0.93;0.63;;;9.30;55.40;;;;;;5043922;28;20025;-76
2021/04/15 13:51:23;;;;;;;1.45;0.68;;;9.40;57.60;;;;;;5045262;28;20029;-76
2021/04/15 13:53:53;;;;;;;1.95;0.90;;;9.50;57.90;;;;;;5046863;28;20485;-76
2021/04/15 13:56:41;;;;;;;0.82;0.70;;;9.70;58.10;;;;;;5047324;28;20467;-75